Time;durP1;ratioP1;P1;durP2;ratioP2;P2;SDS_P1;SDS_P2;PMS_P1;PMS_P2;Temp;Humidity;BMP_temperature;BMP_pressure;BME280_temperature;BME280_humidity;BME280_pressure;Samples;Min_cycle;Max_cycle;Signal;HPM_P1;HPM_P2
2022/03/11 00:00:40;;;;;;;4.33;2.33;;;18.60;34.20;;;;;;4970142;28;88524;-70
2022/03/11 00:03:10;;;;;;;2.40;1.73;;;18.60;34.20;;;;;;4978483;28;90188;-70
2022/03/11 00:05:39;;;;;;;4.20;2.40;;;18.60;34.20;;;;;;4977936;28;89047;-70
2022/03/11 00:08:07;;;;;;;3.33;1.63;;;18.60;34.20;;;;;;4978358;28;88541;-70
2022/03/11 00:10:35;;;;;;;3.73;1.80;;;18.60;34.20;;;;;;4974761;28;91083;-70
2022/03/11 00:13:03;;;;;;;3.60;2.00;;;18.60;34.20;;;;;;4977784;28;90223;-70
2022/03/11 00:15:32;;;;;;;4.90;1.77;;;18.60;34.30;;;;;;4978519;28;88430;-71
2022/03/11 00:18:01;;;;;;;3.60;2.47;;;18.60;34.90;;;;;;4978009;28;88589;-70
2022/03/11 00:20:29;;;;;;;2.20;1.80;;;18.50;34.20;;;;;;4978773;28;93677;-69
2022/03/11 00:22:57;;;;;;;2.03;1.80;;;18.50;34.10;;;;;;4978536;28;92135;-70
2022/03/11 00:25:25;;;;;;;3.53;2.30;;;18.50;34.10;;;;;;4978943;28;88409;-70
2022/03/11 00:27:53;;;;;;;3.10;2.37;;;18.50;34.20;;;;;;4982120;28;88653;-70
2022/03/11 00:30:21;;;;;;;2.63;1.77;;;18.50;34.10;;;;;;4981283;28;90585;-70
2022/03/11 00:32:50;;;;;;;2.77;1.83;;;18.50;34.10;;;;;;4974193;28;89029;-70
2022/03/11 00:35:21;;;;;;;3.67;1.97;;;18.50;34.10;;;;;;4974241;28;92347;-70
2022/03/11 00:37:49;;;;;;;6.17;2.20;;;18.50;34.10;;;;;;4982156;28;88502;-70
2022/03/11 00:40:17;;;;;;;3.23;2.20;;;18.50;34.10;;;;;;4981002;28;89501;-70
2022/03/11 00:42:45;;;;;;;5.30;2.40;;;18.50;34.10;;;;;;4962511;28;90049;-70
2022/03/11 00:45:13;;;;;;;3.47;2.20;;;18.50;34.10;;;;;;4962925;28;88654;-70
2022/03/11 00:47:42;;;;;;;5.13;2.70;;;18.40;34.70;;;;;;4981123;28;88729;-71
2022/03/11 00:50:11;;;;;;;4.17;2.37;;;18.40;34.10;;;;;;4981492;28;89594;-70
2022/03/11 00:52:41;;;;;;;3.10;2.03;;;18.40;34.10;;;;;;4980680;28;92556;-70
2022/03/11 00:55:10;;;;;;;2.43;2.00;;;18.40;34.10;;;;;;4982030;28;88913;-73
2022/03/11 00:57:39;;;;;;;2.73;2.10;;;18.40;34.10;;;;;;4981236;28;88693;-73
2022/03/11 01:00:08;;;;;;;2.63;2.10;;;18.40;34.10;;;;;;4985512;28;91445;-73
2022/03/11 01:02:36;;;;;;;3.27;1.93;;;18.40;34.10;;;;;;4999340;28;90144;-72
2022/03/11 01:05:05;;;;;;;5.20;2.60;;;18.40;34.10;;;;;;5001463;28;88411;-73
2022/03/11 01:07:35;;;;;;;2.57;1.73;;;18.40;34.10;;;;;;4987109;28;88725;-72
2022/03/11 01:10:05;;;;;;;2.83;2.00;;;18.40;34.20;;;;;;4999710;28;89995;-73
2022/03/11 01:12:33;;;;;;;3.10;2.10;;;18.40;34.20;;;;;;5001932;28;93504;-73
2022/03/11 01:15:01;;;;;;;4.47;1.90;;;18.40;34.20;;;;;;4983606;28;88976;-73
2022/03/11 01:17:29;;;;;;;3.57;2.23;;;18.40;34.10;;;;;;4990603;28;88607;-73
2022/03/11 01:19:57;;;;;;;7.17;1.97;;;18.40;34.10;;;;;;4982559;28;93535;-73
2022/03/11 01:22:26;;;;;;;2.47;1.90;;;18.40;34.20;;;;;;4982986;28;90406;-73
2022/03/11 01:24:55;;;;;;;2.47;1.87;;;18.40;34.20;;;;;;5002500;28;91452;-73
2022/03/11 01:27:24;;;;;;;2.93;2.53;;;18.40;34.30;;;;;;5001873;28;88593;-73
2022/03/11 01:29:52;;;;;;;3.10;1.93;;;18.40;34.30;;;;;;5001515;28;90745;-73
2022/03/11 01:32:20;;;;;;;3.93;2.20;;;18.40;34.20;;;;;;4986441;28;89188;-73
2022/03/11 01:34:48;;;;;;;5.27;2.40;;;18.40;34.20;;;;;;4968995;28;90235;-73
2022/03/11 01:37:16;;;;;;;3.77;2.00;;;18.40;34.20;;;;;;4990454;28;88427;-73
2022/03/11 01:39:45;;;;;;;2.30;2.10;;;18.40;34.30;;;;;;4994883;28;90043;-73
2022/03/11 01:42:15;;;;;;;2.73;1.97;;;18.40;34.30;;;;;;4997641;28;90287;-72
2022/03/11 01:44:43;;;;;;;3.03;2.00;;;18.40;34.30;;;;;;4982777;28;88837;-73
2022/03/11 01:47:11;;;;;;;3.27;2.37;;;18.40;34.30;;;;;;4982005;28;89414;-72
2022/03/11 01:49:39;;;;;;;3.37;1.87;;;18.30;34.20;;;;;;5002303;28;93414;-72
2022/03/11 01:52:07;;;;;;;3.87;2.37;;;18.30;34.20;;;;;;4988132;28;89111;-69
2022/03/11 01:54:35;;;;;;;4.17;2.17;;;18.30;34.10;;;;;;4982237;28;89045;-70
2022/03/11 01:57:04;;;;;;;2.87;1.77;;;18.30;34.00;;;;;;4981808;28;88651;-70
2022/03/11 01:59:33;;;;;;;3.00;1.97;;;18.30;34.00;;;;;;4980829;28;90780;-70
2022/03/11 02:02:01;;;;;;;3.73;2.40;;;18.20;33.90;;;;;;4981299;28;89363;-71
2022/03/11 02:04:29;;;;;;;5.27;2.63;;;18.20;33.90;;;;;;4981201;28;90351;-71
2022/03/11 02:06:58;;;;;;;4.07;1.70;;;18.20;33.90;;;;;;4982496;28;88683;-71
2022/03/11 02:09:26;;;;;;;4.03;2.20;;;18.20;33.90;;;;;;4979710;28;89611;-70
2022/03/11 02:11:54;;;;;;;3.67;1.67;;;18.20;34.00;;;;;;4980264;28;89972;-70
2022/03/11 02:14:22;;;;;;;4.17;2.27;;;18.20;34.10;;;;;;4980932;28;89803;-70
2022/03/11 02:16:51;;;;;;;2.70;1.83;;;18.20;34.10;;;;;;4975945;28;88635;-69
2022/03/11 02:19:19;;;;;;;3.90;2.10;;;18.20;34.00;;;;;;4976643;28;91051;-70
2022/03/11 02:21:48;;;;;;;3.83;2.30;;;18.20;34.00;;;;;;4976507;28;90542;-70
2022/03/11 02:24:17;;;;;;;2.63;1.87;;;18.20;33.90;;;;;;4976749;28;89253;-70
2022/03/11 02:26:45;;;;;;;2.20;1.93;;;18.20;33.90;;;;;;4981562;28;88439;-70
2022/03/11 02:29:13;;;;;;;3.10;2.13;;;18.20;33.80;;;;;;4980550;28;90775;-70
2022/03/11 02:31:41;;;;;;;3.90;2.33;;;18.10;33.70;;;;;;4980157;28;89991;-70
2022/03/11 02:34:10;;;;;;;4.00;2.40;;;18.10;33.70;;;;;;4980521;28;88858;-70
2022/03/11 02:36:38;;;;;;;4.10;2.50;;;18.00;33.50;;;;;;4981025;28;88406;-70
2022/03/11 02:39:06;;;;;;;4.00;2.47;;;18.00;33.50;;;;;;4977892;28;89934;-70
2022/03/11 02:41:36;;;;;;;3.83;2.57;;;18.00;33.40;;;;;;4975946;28;90086;-70
2022/03/11 02:44:05;;;;;;;2.53;1.63;;;18.00;33.40;;;;;;4980476;28;91644;-70
2022/03/11 02:46:33;;;;;;;6.13;2.53;;;17.90;33.30;;;;;;4979522;28;88457;-70
2022/03/11 02:49:02;;;;;;;2.80;2.30;;;18.00;33.40;;;;;;4978698;28;90735;-70
2022/03/11 02:51:30;;;;;;;2.70;2.50;;;18.00;33.40;;;;;;4979388;28;89850;-70
2022/03/11 02:53:58;;;;;;;3.03;2.40;;;18.00;33.30;;;;;;4980728;28;88907;-70
2022/03/11 02:56:26;;;;;;;3.43;2.37;;;18.00;33.20;;;;;;4979369;28;88532;-70
2022/03/11 02:58:55;;;;;;;2.47;1.97;;;18.00;33.20;;;;;;4976162;28;93373;-70
2022/03/11 03:01:23;;;;;;;3.87;2.63;;;18.00;33.10;;;;;;4987387;28;90493;-70
2022/03/11 03:03:51;;;;;;;4.97;2.93;;;18.00;33.10;;;;;;4990996;28;89865;-70
2022/03/11 03:06:19;;;;;;;4.10;2.67;;;18.00;33.10;;;;;;4996433;28;89213;-70
2022/03/11 03:08:47;;;;;;;3.97;2.57;;;18.00;33.10;;;;;;4993747;28;90625;-70
2022/03/11 03:11:15;;;;;;;3.23;1.93;;;18.00;33.00;;;;;;4997505;28;89024;-70
2022/03/11 03:13:43;;;;;;;4.23;2.20;;;18.00;33.00;;;;;;4992822;28;90438;-70
2022/03/11 03:16:13;;;;;;;2.63;1.97;;;18.00;33.00;;;;;;4999803;28;88681;-70
2022/03/11 03:18:41;;;;;;;3.50;2.43;;;18.00;33.00;;;;;;4998629;28;90770;-70
2022/03/11 03:21:09;;;;;;;2.80;2.07;;;17.90;32.90;;;;;;4999361;28;90457;-70
2022/03/11 03:23:37;;;;;;;4.70;2.53;;;17.90;32.90;;;;;;4999207;28;88281;-70
2022/03/11 03:26:05;;;;;;;2.40;2.07;;;17.90;32.90;;;;;;4999426;28;88389;-70
2022/03/11 03:28:33;;;;;;;3.57;2.53;;;18.00;33.00;;;;;;4999357;28;89811;-70
2022/03/11 03:31:01;;;;;;;3.27;2.27;;;17.90;33.00;;;;;;4998759;28;90155;-70
2022/03/11 03:33:32;;;;;;;4.73;2.30;;;17.90;33.00;;;;;;4998840;28;90400;-70
2022/03/11 03:35:59;;;;;;;3.67;2.10;;;17.90;33.00;;;;;;4997252;28;88555;-70
2022/03/11 03:38:28;;;;;;;3.23;1.97;;;17.90;33.00;;;;;;4998135;28;90574;-70
2022/03/11 03:40:56;;;;;;;3.23;2.23;;;17.90;33.00;;;;;;4999051;28;90454;-70
2022/03/11 03:43:24;;;;;;;3.80;2.57;;;17.90;33.00;;;;;;4980047;28;88407;-70
2022/03/11 03:45:52;;;;;;;8.60;2.77;;;17.90;33.00;;;;;;4979149;28;88644;-70
2022/03/11 03:48:20;;;;;;;10.10;2.67;;;17.90;33.00;;;;;;4981693;28;93441;-70
2022/03/11 03:50:50;;;;;;;9.60;2.87;;;17.80;32.80;;;;;;4979303;28;90784;-70
2022/03/11 03:53:18;;;;;;;3.10;2.70;;;17.80;32.80;;;;;;4990403;28;90250;-70
2022/03/11 03:55:46;;;;;;;3.17;2.57;;;17.80;32.80;;;;;;4992047;28;89369;-70
2022/03/11 03:58:14;;;;;;;3.53;2.50;;;17.70;32.70;;;;;;4992012;28;88861;-70
2022/03/11 04:00:42;;;;;;;4.93;3.30;;;17.60;32.60;;;;;;4993746;28;89906;-70
2022/03/11 04:03:10;;;;;;;4.03;2.73;;;17.60;32.60;;;;;;4998292;28;88605;-70
2022/03/11 04:05:38;;;;;;;5.17;2.47;;;17.60;32.60;;;;;;4999417;28;88356;-70
2022/03/11 04:08:08;;;;;;;2.67;2.40;;;17.60;32.60;;;;;;4999122;28;90132;-70
2022/03/11 04:10:36;;;;;;;2.57;2.30;;;17.60;32.60;;;;;;4979083;28;88768;-70
2022/03/11 04:13:04;;;;;;;4.17;2.97;;;17.50;32.40;;;;;;4996516;28;88328;-70
2022/03/11 04:15:33;;;;;;;4.53;2.73;;;17.50;32.40;;;;;;4998833;28;88693;-70
2022/03/11 04:18:01;;;;;;;4.47;2.60;;;17.50;33.00;;;;;;4999290;28;89492;-70
2022/03/11 04:20:29;;;;;;;4.80;3.13;;;17.50;32.40;;;;;;4998494;28;90048;-71
2022/03/11 04:22:57;;;;;;;8.13;3.23;;;17.50;32.30;;;;;;4998557;28;88623;-71
2022/03/11 04:25:26;;;;;;;5.33;3.20;;;17.50;32.30;;;;;;4999626;28;88576;-71
2022/03/11 04:27:54;;;;;;;5.17;2.93;;;17.50;32.30;;;;;;4998689;28;89410;-70
2022/03/11 04:30:22;;;;;;;5.10;2.90;;;17.40;32.20;;;;;;4998678;28;88854;-70
2022/03/11 04:32:50;;;;;;;5.40;3.43;;;17.40;32.20;;;;;;4997448;28;88577;-69
2022/03/11 04:35:19;;;;;;;4.37;2.63;;;17.40;32.10;;;;;;4998127;28;88700;-69
2022/03/11 04:37:47;;;;;;;4.70;2.70;;;17.40;32.20;;;;;;4998765;28;92148;-69
2022/03/11 04:40:15;;;;;;;2.90;2.53;;;17.40;32.20;;;;;;4997724;28;88362;-70
2022/03/11 04:42:44;;;;;;;4.47;2.63;;;17.40;32.10;;;;;;4991752;28;89717;-70
2022/03/11 04:45:12;;;;;;;4.27;3.13;;;17.40;32.10;;;;;;4998893;28;88491;-70
2022/03/11 04:47:40;;;;;;;5.20;2.90;;;17.40;32.10;;;;;;4998506;28;90186;-70
2022/03/11 04:50:09;;;;;;;6.20;3.20;;;17.40;32.10;;;;;;4999332;28;93075;-70
2022/03/11 04:52:37;;;;;;;3.90;2.90;;;17.30;32.10;;;;;;4998594;28;88437;-71
2022/03/11 04:55:06;;;;;;;3.33;2.27;;;17.30;32.10;;;;;;4998005;28;88680;-69
2022/03/11 04:57:34;;;;;;;8.83;2.80;;;17.30;32.10;;;;;;4998870;28;90839;-70
2022/03/11 05:00:04;;;;;;;7.63;3.30;;;17.30;32.10;;;;;;4998029;28;89002;-69
2022/03/11 05:02:32;;;;;;;3.43;2.67;;;17.30;32.10;;;;;;4998118;28;89088;-70
2022/03/11 05:05:04;;;;;;;4.87;3.00;;;17.20;32.70;;;;;;4998557;28;88494;-70
2022/03/11 05:07:32;;;;;;;4.10;3.07;;;17.20;32.00;;;;;;4998595;28;90580;-70
2022/03/11 05:10:01;;;;;;;3.83;2.77;;;17.20;32.00;;;;;;4978459;28;89395;-69
2022/03/11 05:12:29;;;;;;;5.67;3.10;;;17.30;32.10;;;;;;4988160;28;88872;-70
2022/03/11 05:14:57;;;;;;;6.17;2.90;;;17.30;32.10;;;;;;5001118;28;89675;-70
2022/03/11 05:17:27;;;;;;;3.57;2.50;;;17.20;31.90;;;;;;5001939;28;90640;-70
2022/03/11 05:19:55;;;;;;;3.03;2.67;;;17.20;32.00;;;;;;5001568;28;88252;-70
2022/03/11 05:22:23;;;;;;;5.27;3.10;;;17.20;32.70;;;;;;4981426;28;88324;-70
2022/03/11 05:24:51;;;;;;;3.80;2.80;;;17.20;32.00;;;;;;4982641;28;88408;-70
2022/03/11 05:27:19;;;;;;;2.93;2.37;;;17.20;32.00;;;;;;4982019;28;89323;-70
2022/03/11 05:29:47;;;;;;;5.17;2.47;;;17.20;32.00;;;;;;4981406;28;89347;-69
2022/03/11 05:32:16;;;;;;;4.10;2.70;;;17.20;32.70;;;;;;4981970;28;89786;-70
2022/03/11 05:34:45;;;;;;;4.33;2.30;;;17.20;32.10;;;;;;4993448;28;88560;-70
2022/03/11 05:37:15;;;;;;;4.13;2.70;;;17.30;32.20;;;;;;5000619;28;90718;-70
2022/03/11 05:39:43;;;;;;;7.57;3.03;;;17.30;32.20;;;;;;4990898;28;91870;-70
2022/03/11 05:42:11;;;;;;;6.57;2.87;;;17.30;32.20;;;;;;4999389;28;88803;-70
2022/03/11 05:44:39;;;;;;;3.00;2.60;;;17.30;32.90;;;;;;4993770;28;89610;-70
2022/03/11 05:47:09;;;;;;;4.23;2.03;;;17.30;32.30;;;;;;4998492;28;91121;-70
2022/03/11 05:49:37;;;;;;;2.73;2.20;;;17.30;32.30;;;;;;4984993;28;90054;-70
2022/03/11 05:52:07;;;;;;;4.23;2.87;;;17.30;32.30;;;;;;5000768;28;88473;-70
2022/03/11 05:54:35;;;;;;;5.37;2.60;;;17.30;32.30;;;;;;5001180;28;88446;-70
2022/03/11 05:57:08;;;;;;;4.37;3.00;;;17.20;32.20;;;;;;5000825;28;90114;-70
2022/03/11 05:59:36;;;;;;;6.30;3.23;;;17.20;32.30;;;;;;5000883;28;90115;-70
2022/03/11 06:02:04;;;;;;;4.13;3.07;;;17.20;32.30;;;;;;5000470;28;89245;-70
2022/03/11 06:04:33;;;;;;;4.30;2.83;;;17.20;32.20;;;;;;5001058;28;88547;-70
2022/03/11 06:07:01;;;;;;;4.97;3.03;;;17.20;32.20;;;;;;5001205;28;89588;-69
2022/03/11 06:09:30;;;;;;;4.57;2.63;;;17.20;32.20;;;;;;4999476;28;90030;-70
2022/03/11 06:11:58;;;;;;;4.60;3.43;;;17.10;32.10;;;;;;5001553;28;90719;-69
2022/03/11 06:14:26;;;;;;;7.40;3.20;;;17.10;32.70;;;;;;5001602;28;88505;-70
2022/03/11 06:16:54;;;;;;;3.20;2.03;;;17.00;31.90;;;;;;5000849;28;89638;-69
2022/03/11 06:19:22;;;;;;;4.07;3.00;;;16.90;32.00;;;;;;5000319;28;90069;-70
2022/03/11 06:21:50;;;;;;;5.33;3.03;;;16.90;32.00;;;;;;5000272;28;89822;-69
2022/03/11 06:24:18;;;;;;;4.20;2.70;;;16.90;32.00;;;;;;5000720;28;88062;-70
2022/03/11 06:26:47;;;;;;;4.47;2.87;;;16.80;31.90;;;;;;5001182;28;93405;-70
2022/03/11 06:29:15;;;;;;;5.20;3.00;;;16.90;31.90;;;;;;5000672;28;89606;-70
2022/03/11 06:31:43;;;;;;;3.53;2.90;;;16.80;31.80;;;;;;5000199;28;88323;-70
2022/03/11 06:34:11;;;;;;;3.33;2.57;;;16.80;31.80;;;;;;5000675;28;88469;-70
2022/03/11 06:36:39;;;;;;;3.63;2.70;;;16.80;31.80;;;;;;5000056;28;90054;-70
2022/03/11 06:39:08;;;;;;;4.70;2.93;;;16.80;31.80;;;;;;4995570;28;93239;-71
2022/03/11 06:41:36;;;;;;;3.47;2.60;;;16.80;31.80;;;;;;4994573;28;90010;-69
2022/03/11 06:44:06;;;;;;;3.33;2.63;;;16.80;31.80;;;;;;5000591;28;88528;-70
2022/03/11 06:46:34;;;;;;;3.77;2.77;;;16.80;31.80;;;;;;5000019;28;90623;-70
2022/03/11 06:49:03;;;;;;;4.07;2.77;;;16.80;31.80;;;;;;5000088;28;90171;-70
2022/03/11 06:51:31;;;;;;;4.63;2.97;;;16.80;31.80;;;;;;5000441;28;88544;-70
2022/03/11 06:54:04;;;;;;;5.10;2.60;;;16.80;31.70;;;;;;5000752;28;88560;-70
2022/03/11 06:56:32;;;;;;;4.10;2.30;;;16.80;31.80;;;;;;5000560;28;90816;-70
2022/03/11 06:59:00;;;;;;;4.73;3.00;;;16.80;31.80;;;;;;5000379;28;90075;-70
2022/03/11 07:01:29;;;;;;;3.27;2.40;;;16.80;32.00;;;;;;5000228;28;88858;-69
2022/03/11 07:03:58;;;;;;;4.13;2.77;;;16.80;31.70;;;;;;5000736;28;88473;-69
2022/03/11 07:06:26;;;;;;;4.47;2.80;;;16.80;31.70;;;;;;4999988;28;90637;-70
2022/03/11 07:08:54;;;;;;;3.10;2.40;;;16.80;31.70;;;;;;4999037;28;89421;-70
2022/03/11 07:11:22;;;;;;;2.63;2.10;;;16.80;31.70;;;;;;5000195;28;92130;-70
2022/03/11 07:13:50;;;;;;;4.90;2.57;;;16.80;31.70;;;;;;5000018;28;88461;-70
2022/03/11 07:16:18;;;;;;;6.03;2.83;;;16.80;31.70;;;;;;4999632;28;89145;-70
2022/03/11 07:18:48;;;;;;;2.53;2.20;;;16.90;31.80;;;;;;4999240;28;90024;-70
2022/03/11 07:21:16;;;;;;;5.00;2.53;;;16.90;31.70;;;;;;4999704;28;88331;-69
2022/03/11 07:23:44;;;;;;;3.17;2.37;;;16.90;31.70;;;;;;4999921;28;88678;-69
2022/03/11 07:26:12;;;;;;;3.97;2.90;;;16.90;31.70;;;;;;4999029;28;90491;-69
2022/03/11 07:28:40;;;;;;;5.30;3.07;;;16.90;31.70;;;;;;4999223;28;90018;-69
2022/03/11 07:31:10;;;;;;;5.50;2.40;;;16.80;31.70;;;;;;5000139;28;88275;-69
2022/03/11 07:33:38;;;;;;;2.63;2.37;;;16.80;31.70;;;;;;4999694;28;88370;-70
2022/03/11 07:36:08;;;;;;;5.17;2.83;;;16.80;31.70;;;;;;4998897;28;90866;-69
2022/03/11 07:38:36;;;;;;;5.20;2.80;;;16.80;31.70;;;;;;4996265;28;92517;-70
2022/03/11 07:41:07;;;;;;;4.23;3.03;;;16.80;31.70;;;;;;4993187;28;90749;-70
2022/03/11 07:43:35;;;;;;;3.47;2.57;;;16.90;31.80;;;;;;5000171;28;88624;-69
2022/03/11 07:46:04;;;;;;;5.50;2.63;;;16.80;31.70;;;;;;4999085;28;89853;-69
2022/03/11 07:48:32;;;;;;;3.87;2.77;;;16.80;31.70;;;;;;4998667;28;89184;-70
2022/03/11 07:51:02;;;;;;;4.97;2.43;;;16.90;31.70;;;;;;4999933;28;88773;-70
2022/03/11 07:53:35;;;;;;;3.63;1.97;;;16.90;31.70;;;;;;4998955;28;88648;-69
2022/03/11 07:56:03;;;;;;;5.30;2.33;;;16.90;31.70;;;;;;4999251;28;90897;-69
2022/03/11 07:58:31;;;;;;;3.23;2.33;;;16.90;31.70;;;;;;4998043;28;89091;-70
2022/03/11 08:00:59;;;;;;;3.50;2.60;;;16.90;31.80;;;;;;4999826;28;89306;-70
2022/03/11 08:03:28;;;;;;;4.27;2.63;;;17.00;31.90;;;;;;4999703;28;88267;-70
2022/03/11 08:05:56;;;;;;;3.20;2.60;;;17.00;31.90;;;;;;4998464;28;92501;-70
2022/03/11 08:08:24;;;;;;;5.87;2.77;;;17.00;31.90;;;;;;4993148;28;91626;-70
2022/03/11 08:10:54;;;;;;;4.80;2.40;;;17.00;31.90;;;;;;4996816;28;89751;-70
2022/03/11 08:13:33;;;;;;;4.27;2.40;;;17.00;32.00;;;;;;4999345;28;89743;-70
2022/03/11 08:16:02;;;;;;;4.20;2.23;;;17.00;32.00;;;;;;4999478;28;90577;-69
2022/03/11 08:18:30;;;;;;;5.63;2.33;;;17.00;32.00;;;;;;4998514;28;90464;-69
2022/03/11 08:20:58;;;;;;;3.70;2.20;;;17.10;32.10;;;;;;4999438;28;91121;-70
2022/03/11 08:23:26;;;;;;;2.43;1.73;;;17.10;32.20;;;;;;4998037;28;88529;-70
2022/03/11 08:25:55;;;;;;;4.87;2.40;;;17.10;32.20;;;;;;4999216;28;90114;-69
2022/03/11 08:28:24;;;;;;;3.33;2.63;;;17.10;32.20;;;;;;4998374;28;90293;-69
2022/03/11 08:30:52;;;;;;;3.33;2.60;;;17.00;32.10;;;;;;4999381;28;88855;-70
2022/03/11 08:33:22;;;;;;;6.20;2.70;;;17.00;32.10;;;;;;4999111;28;88648;-70
2022/03/11 08:36:10;;;;;;;4.47;2.07;;;17.00;32.90;;;;;;4998927;28;88545;-69
2022/03/11 08:38:40;;;;;;;2.70;2.10;;;17.00;32.30;;;;;;4995730;28;89191;-69
2022/03/11 08:41:10;;;;;;;4.77;2.17;;;17.00;32.30;;;;;;4990959;28;88637;-69
2022/03/11 08:43:38;;;;;;;3.10;2.00;;;17.00;32.90;;;;;;4995364;28;88763;-70
2022/03/11 08:46:07;;;;;;;4.30;2.60;;;17.00;33.00;;;;;;4997700;28;89976;-69
2022/03/11 08:48:36;;;;;;;2.20;1.97;;;17.00;32.40;;;;;;5001052;28;89142;-70
2022/03/11 08:51:04;;;;;;;3.33;2.30;;;17.00;32.40;;;;;;5002328;28;90110;-70
2022/03/11 08:53:32;;;;;;;3.03;2.00;;;17.00;32.40;;;;;;5001432;28;88604;-70
2022/03/11 08:56:00;;;;;;;2.40;2.20;;;17.00;32.40;;;;;;5001256;28;89711;-70
2022/03/11 08:58:29;;;;;;;3.20;2.43;;;17.00;32.50;;;;;;5000914;28;90107;-70
2022/03/11 09:00:57;;;;;;;2.93;2.10;;;17.00;33.10;;;;;;4978573;28;88970;-70
2022/03/11 09:03:26;;;;;;;5.37;1.77;;;17.00;32.50;;;;;;4982818;28;88554;-70
2022/03/11 09:05:54;;;;;;;4.53;2.40;;;17.00;32.50;;;;;;5002251;28;90690;-70
2022/03/11 09:08:23;;;;;;;3.60;2.03;;;17.10;32.60;;;;;;4999613;28;88663;-70
2022/03/11 09:10:51;;;;;;;4.47;1.80;;;17.10;32.60;;;;;;5000586;28;89855;-70
2022/03/11 09:13:19;;;;;;;4.57;2.13;;;17.10;32.60;;;;;;5001748;28;88627;-70
2022/03/11 09:15:48;;;;;;;4.60;2.33;;;17.20;32.70;;;;;;5001355;28;89522;-70
2022/03/11 09:18:16;;;;;;;3.53;2.73;;;17.10;32.60;;;;;;5002383;28;89953;-69
2022/03/11 09:20:44;;;;;;;3.20;2.20;;;17.10;32.70;;;;;;5002080;28;88229;-70
2022/03/11 09:23:12;;;;;;;2.70;1.90;;;17.20;32.90;;;;;;5002079;28;88459;-70
2022/03/11 09:25:41;;;;;;;4.53;2.43;;;17.20;32.90;;;;;;5001436;28;90677;-70
2022/03/11 09:28:10;;;;;;;3.77;2.47;;;17.20;32.90;;;;;;5001403;28;88298;-70
2022/03/11 09:30:38;;;;;;;2.90;2.10;;;17.30;33.00;;;;;;4999718;28;88558;-69
2022/03/11 09:33:08;;;;;;;6.97;3.20;;;17.30;33.10;;;;;;5001483;28;88650;-69
2022/03/11 09:35:36;;;;;;;3.57;2.17;;;17.30;33.10;;;;;;5000614;28;89670;-70
2022/03/11 09:38:04;;;;;;;3.70;2.23;;;17.30;33.10;;;;;;5001037;28;88524;-70
2022/03/11 09:40:32;;;;;;;3.77;2.17;;;17.30;33.80;;;;;;4997444;28;89846;-70
2022/03/11 09:43:01;;;;;;;7.00;2.30;;;17.30;33.20;;;;;;5001286;28;88634;-70
2022/03/11 09:45:29;;;;;;;3.73;2.53;;;17.40;33.30;;;;;;4999899;28;90749;-70
2022/03/11 09:47:57;;;;;;;2.57;2.10;;;17.40;33.30;;;;;;4995442;28;90054;-70
2022/03/11 09:50:30;;;;;;;3.37;2.10;;;17.40;33.40;;;;;;5000472;28;88333;-70
2022/03/11 09:52:58;;;;;;;3.60;2.10;;;17.40;33.40;;;;;;5001432;28;88504;-70
2022/03/11 09:55:26;;;;;;;3.53;2.30;;;17.40;33.40;;;;;;5000890;28;90651;-69
2022/03/11 09:57:55;;;;;;;3.37;2.10;;;17.40;33.50;;;;;;5000511;28;89012;-70
2022/03/11 10:00:23;;;;;;;4.67;2.67;;;17.40;34.20;;;;;;4999786;28;88519;-70
2022/03/11 10:02:56;;;;;;;3.00;2.70;;;17.40;33.50;;;;;;5001283;28;88401;-70
2022/03/11 10:05:25;;;;;;;2.93;2.20;;;17.40;33.50;;;;;;5000313;28;90888;-70
2022/03/11 10:08:01;;;;;;;2.50;1.70;;;17.40;34.20;;;;;;5000556;28;89178;-70
2022/03/11 10:10:30;;;;;;;2.83;2.33;;;17.30;33.50;;;;;;4999628;28;88789;-70
2022/03/11 10:13:07;;;;;;;6.33;2.33;;;17.40;33.70;;;;;;5001032;28;88483;-70
2022/03/11 10:15:35;;;;;;;3.23;2.00;;;17.40;33.70;;;;;;4999512;28;90610;-70
2022/03/11 10:18:03;;;;;;;3.00;1.87;;;17.40;33.70;;;;;;4999893;28;88977;-70
2022/03/11 10:20:32;;;;;;;3.50;2.17;;;17.40;33.80;;;;;;4999694;28;88403;-70
2022/03/11 10:23:02;;;;;;;4.43;2.40;;;17.40;33.80;;;;;;5001357;28;88546;-69
2022/03/11 10:25:30;;;;;;;2.80;1.80;;;17.40;33.90;;;;;;4999284;28;90721;-70
2022/03/11 10:27:59;;;;;;;3.80;2.07;;;17.40;33.90;;;;;;5000456;28;90140;-70
2022/03/11 10:30:27;;;;;;;5.03;2.13;;;17.40;34.10;;;;;;4999304;28;89546;-70
2022/03/11 10:32:55;;;;;;;3.57;2.37;;;17.50;34.10;;;;;;5000289;28;88543;-70
2022/03/11 10:35:30;;;;;;;2.10;1.40;;;17.50;34.20;;;;;;4999970;28;90175;-69
2022/03/11 10:38:01;;;;;;;3.23;2.00;;;17.50;34.20;;;;;;4998301;28;89139;-70
2022/03/11 10:40:30;;;;;;;2.97;2.03;;;17.60;34.30;;;;;;4999247;28;89412;-70
2022/03/11 10:43:17;;;;;;;3.87;2.80;;;17.60;34.30;;;;;;5000958;28;88425;-70
2022/03/11 10:45:49;;;;;;;7.93;3.03;;;17.60;34.50;;;;;;4999968;28;89452;-70
2022/03/11 10:48:18;;;;;;;4.87;2.30;;;17.60;34.40;;;;;;5000596;28;89971;-70
2022/03/11 10:50:46;;;;;;;3.73;2.13;;;17.60;34.50;;;;;;4999609;28;88855;-69
2022/03/11 10:53:15;;;;;;;5.30;2.33;;;17.70;34.70;;;;;;4999681;28;88385;-70
2022/03/11 10:55:43;;;;;;;3.50;2.50;;;17.70;34.70;;;;;;4999903;28;91041;-69
2022/03/11 10:58:16;;;;;;;3.73;2.40;;;17.70;34.80;;;;;;4999258;28;90023;-70
2022/03/11 11:00:45;;;;;;;3.53;2.47;;;17.80;34.80;;;;;;4997098;28;88868;-70
2022/03/11 11:03:13;;;;;;;2.90;2.37;;;17.80;34.90;;;;;;4986311;28;88823;-69
2022/03/11 11:05:42;;;;;;;3.43;2.40;;;17.80;35.00;;;;;;4980283;28;90643;-70
2022/03/11 11:08:10;;;;;;;2.50;2.30;;;17.80;35.00;;;;;;4987192;28;91811;-69
2022/03/11 11:10:39;;;;;;;3.80;1.90;;;17.80;35.00;;;;;;4991630;28;88575;-70
2022/03/11 11:13:09;;;;;;;3.33;2.67;;;17.90;35.10;;;;;;4980596;28;88386;-70
2022/03/11 11:15:40;;;;;;;4.03;2.37;;;17.90;35.10;;;;;;4982968;28;89299;-70
2022/03/11 11:18:11;;;;;;;6.03;2.07;;;17.90;35.10;;;;;;4999855;28;93111;-70
2022/03/11 11:20:46;;;;;;;3.27;2.27;;;17.80;35.70;;;;;;4996119;28;89875;-70
2022/03/11 11:23:15;;;;;;;3.37;2.30;;;17.80;35.20;;;;;;4980153;28;88618;-70
2022/03/11 11:25:45;;;;;;;6.40;2.67;;;17.90;35.30;;;;;;4998410;28;88994;-70
2022/03/11 11:28:15;;;;;;;2.97;2.20;;;17.90;35.30;;;;;;4987218;28;90011;-70
2022/03/11 11:30:43;;;;;;;4.47;2.47;;;18.00;36.10;;;;;;4980038;28;88449;-69
2022/03/11 11:33:12;;;;;;;4.77;2.40;;;18.00;35.40;;;;;;4979666;28;88637;-70
2022/03/11 11:35:41;;;;;;;3.10;2.17;;;18.00;35.40;;;;;;4979895;28;90800;-70
2022/03/11 11:38:28;;;;;;;2.93;2.00;;;18.00;35.50;;;;;;4991322;28;89410;-70
2022/03/11 11:40:58;;;;;;;2.40;1.90;;;17.90;35.40;;;;;;4982732;28;90346;-70
2022/03/11 11:43:27;;;;;;;5.60;2.47;;;17.90;35.50;;;;;;4997638;28;88546;-70
2022/03/11 11:46:04;;;;;;;3.20;2.87;;;17.90;35.50;;;;;;4959856;28;90260;-70
2022/03/11 11:48:58;;;;;;;4.17;2.30;;;17.90;35.60;;;;;;4961998;28;89936;-70
2022/03/11 11:51:56;;;;;;;2.87;2.17;;;17.90;35.90;;;;;;4986422;28;89456;-70
2022/03/11 11:54:38;;;;;;;2.43;2.17;;;17.90;35.70;;;;;;4981415;28;89179;-71
2022/03/11 11:57:08;;;;;;;12.40;2.50;;;18.00;36.50;;;;;;4974060;28;89745;-71
2022/03/11 11:59:37;;;;;;;3.37;2.13;;;18.00;35.90;;;;;;4980827;28;90221;-71
2022/03/11 12:02:30;;;;;;;3.97;2.77;;;18.00;36.00;;;;;;4980465;28;88455;-71
2022/03/11 12:04:59;;;;;;;3.20;2.27;;;18.10;36.10;;;;;;4964068;28;88444;-71
2022/03/11 12:07:47;;;;;;;3.23;2.23;;;18.10;36.70;;;;;;4960904;28;90972;-71
2022/03/11 12:10:25;;;;;;;3.67;2.60;;;18.20;36.30;;;;;;4959073;28;90092;-71
2022/03/11 12:13:00;;;;;;;6.30;3.30;;;18.20;36.20;;;;;;4961292;28;89861;-71
2022/03/11 12:15:43;;;;;;;7.03;3.07;;;18.20;36.30;;;;;;4972018;28;88983;-72
2022/03/11 12:18:42;;;;;;;5.53;2.93;;;18.20;36.30;;;;;;4977318;28;89451;-71
2022/03/11 12:21:25;;;;;;;4.77;2.77;;;18.20;36.40;;;;;;4978877;28;89984;-71
2022/03/11 12:23:53;;;;;;;10.47;3.30;;;18.20;36.40;;;;;;4982591;28;88909;-71
2022/03/11 12:26:34;;;;;;;9.27;2.57;;;18.30;36.90;;;;;;4982833;28;88663;-71
2022/03/11 12:29:18;;;;;;;3.50;2.47;;;18.30;37.60;;;;;;4981150;28;89546;-72
2022/03/11 12:31:46;;;;;;;4.80;2.73;;;18.40;38.20;;;;;;4977765;28;91839;-71
2022/03/11 12:34:14;;;;;;;5.00;2.63;;;18.50;38.50;;;;;;4968910;28;88568;-71
2022/03/11 12:36:43;;;;;;;12.50;3.43;;;18.60;38.80;;;;;;4963268;28;88367;-71
2022/03/11 12:39:11;;;;;;;4.50;2.23;;;18.60;38.80;;;;;;4962916;28;90768;-68
2022/03/11 12:41:39;;;;;;;3.97;2.93;;;18.70;38.90;;;;;;4962680;28;90058;-69
2022/03/11 12:44:10;;;;;;;4.77;2.13;;;18.70;38.80;;;;;;4962052;28;89486;-71
2022/03/11 12:46:38;;;;;;;3.57;2.80;;;18.70;38.70;;;;;;4962476;28;88648;-71
2022/03/11 12:49:06;;;;;;;5.57;2.30;;;18.70;38.70;;;;;;4963666;28;90136;-70
2022/03/11 12:51:34;;;;;;;9.17;2.83;;;18.60;38.60;;;;;;4982193;28;89991;-71
2022/03/11 12:54:14;;;;;;;2.50;2.10;;;18.60;38.60;;;;;;4982198;28;88740;-71
2022/03/11 12:56:42;;;;;;;2.53;2.03;;;18.60;38.70;;;;;;4961697;28;91155;-71